createdAt,value
2022-09-15T03:52:53.555Z,12.25
2022-09-15T03:55:22.014Z,12.26
2022-09-15T03:57:48.434Z,12.28
2022-09-15T04:00:14.988Z,12.23
2022-09-15T04:02:41.418Z,12.25
2022-09-15T04:05:08.264Z,12.24
2022-09-15T04:07:34.748Z,12.22
2022-09-15T04:10:01.220Z,12.23
2022-09-15T04:12:29.894Z,12.15
2022-09-15T04:14:56.310Z,12.16
2022-09-15T04:17:22.872Z,12.08
2022-09-15T04:19:49.411Z,12.10
2022-09-15T04:22:17.968Z,12.21
2022-09-15T04:24:44.724Z,12.14
2022-09-15T04:27:11.174Z,12.10
2022-09-15T04:29:37.635Z,12.06
2022-09-15T04:32:04.486Z,12.03
2022-09-15T04:34:31.033Z,11.96
2022-09-15T04:36:57.438Z,11.93
2022-09-15T04:39:24.157Z,11.91
2022-09-15T04:41:50.557Z,11.93
2022-09-15T04:44:17.118Z,11.98
2022-09-15T04:46:43.582Z,11.81
2022-09-15T04:49:10.102Z,11.98
2022-09-15T04:51:36.560Z,11.95
2022-09-15T04:54:03.071Z,11.85
2022-09-15T04:56:29.547Z,11.90
2022-09-15T04:59:03.481Z,11.86
2022-09-15T05:01:33.800Z,11.87
2022-09-15T05:04:04.107Z,11.85
2022-09-15T05:06:31.584Z,11.89
2022-09-15T05:08:58.546Z,11.84
2022-09-15T05:11:26.174Z,11.92
2022-09-15T05:13:53.271Z,11.89
2022-09-15T05:16:26.057Z,11.71
2022-09-15T05:18:54.289Z,11.75
2022-09-15T05:21:22.070Z,11.80
2022-09-15T05:23:50.286Z,11.86
2022-09-15T05:26:23.530Z,11.94
2022-09-15T05:28:50.227Z,12.07
2022-09-15T05:31:35.320Z,11.95
2022-09-15T05:34:04.343Z,11.98
2022-09-15T05:36:31.745Z,11.92
2022-09-15T05:38:58.470Z,11.89
2022-09-15T05:41:26.914Z,12.04
2022-09-15T05:43:56.824Z,12.02
2022-09-15T05:46:26.121Z,12.01
2022-09-15T05:48:56.521Z,12.09
2022-09-15T05:51:23.260Z,12.08
2022-09-15T05:53:50.840Z,12.18
2022-09-15T05:56:18.017Z,12.21
2022-09-15T05:58:47.430Z,12.28
2022-09-15T06:01:22.885Z,12.37
2022-09-15T06:03:49.809Z,12.43
2022-09-15T06:06:17.013Z,12.51
2022-09-15T06:08:48.278Z,12.48
2022-09-15T06:11:16.732Z,12.61
2022-09-15T06:13:44.220Z,12.75
2022-09-15T06:16:16.188Z,12.84
2022-09-15T06:18:42.698Z,12.75
2022-09-15T06:21:20.837Z,13.24
2022-09-15T06:23:52.075Z,13.38
2022-09-15T06:26:19.373Z,13.42
2022-09-15T06:28:51.488Z,13.63
2022-09-15T06:31:18.934Z,13.72
2022-09-15T06:33:47.532Z,13.85
2022-09-15T06:36:15.771Z,13.67
2022-09-15T06:38:43.388Z,13.71
2022-09-15T06:41:10.983Z,13.68
2022-09-15T06:43:38.015Z,13.67
2022-09-15T06:46:09.199Z,13.78
2022-09-15T06:48:37.263Z,13.77
2022-09-15T06:51:04.986Z,14.02
2022-09-15T06:53:33.175Z,14.06
2022-09-15T06:56:09.410Z,13.99
2022-09-15T06:58:37.492Z,14.41
2022-09-15T07:01:09.090Z,14.38
2022-09-15T07:03:36.002Z,14.52
2022-09-15T07:06:03.998Z,14.79
2022-09-15T07:08:30.623Z,14.80
2022-09-15T07:10:57.142Z,14.62
2022-09-15T07:13:24.155Z,14.62
2022-09-15T07:15:55.943Z,14.43
2022-09-15T07:18:24.018Z,14.32
2022-09-15T07:20:51.151Z,15.15
2022-09-15T07:23:18.664Z,15.52
2022-09-15T07:25:45.621Z,15.34
2022-09-15T07:28:12.403Z,15.69
2022-09-15T07:30:39.297Z,15.64
2022-09-15T07:33:07.020Z,15.71
2022-09-15T07:35:33.721Z,15.69
2022-09-15T07:38:00.689Z,16.03
2022-09-15T07:40:28.942Z,15.84
2022-09-15T07:42:55.989Z,15.40
2022-09-15T07:45:23.186Z,15.12
2022-09-15T07:47:49.681Z,15.21
2022-09-15T07:50:16.487Z,15.25
2022-09-15T07:52:42.914Z,15.05
2022-09-15T07:55:10.060Z,15.12
2022-09-15T07:57:36.569Z,14.92
2022-09-15T08:00:04.447Z,15.52
2022-09-15T08:02:30.940Z,15.41
2022-09-15T08:04:58.037Z,15.63
2022-09-15T08:07:24.988Z,15.74
2022-09-15T08:09:51.615Z,16.31
2022-09-15T08:12:18.023Z,16.10
2022-09-15T08:14:44.788Z,16.33
2022-09-15T08:17:11.767Z,16.30
2022-09-15T08:19:38.526Z,16.16
2022-09-15T08:22:05.603Z,16.33
2022-09-15T08:24:32.138Z,16.58
2022-09-15T08:26:58.653Z,16.42
2022-09-15T08:29:25.161Z,16.88
2022-09-15T08:31:51.616Z,16.81
2022-09-15T08:34:18.092Z,16.94
2022-09-15T08:36:44.513Z,16.59
2022-09-15T08:39:11.265Z,16.70
2022-09-15T08:41:44.386Z,16.45
2022-09-15T08:44:29.360Z,16.53
2022-09-15T08:47:09.932Z,16.44
2022-09-15T08:49:55.737Z,16.40
2022-09-15T08:52:30.821Z,16.62
2022-09-15T08:55:00.236Z,16.53
2022-09-15T08:57:26.996Z,16.54
2022-09-15T08:59:54.847Z,16.29
2022-09-15T09:02:58.327Z,16.33
2022-09-15T09:05:53.090Z,16.48
2022-09-15T09:08:28.605Z,16.03
2022-09-15T09:11:01.801Z,16.28
2022-09-15T09:13:35.710Z,16.42
2022-09-15T09:16:20.698Z,15.97
2022-09-15T09:19:10.392Z,15.84
2022-09-15T09:21:44.312Z,16.11
2022-09-15T09:24:25.578Z,16.38
2022-09-15T09:26:55.273Z,16.19
2022-09-15T09:29:36.550Z,16.63
2022-09-15T09:32:04.044Z,16.05
2022-09-15T09:35:29.634Z,16.48
2022-09-15T09:37:56.983Z,16.90
2022-09-15T09:40:23.649Z,17.09
2022-09-15T09:42:50.276Z,17.31
2022-09-15T09:45:19.570Z,17.72
2022-09-15T09:47:49.064Z,17.47
2022-09-15T09:50:43.568Z,17.32
2022-09-15T09:53:32.874Z,16.95
2022-09-15T09:56:26.702Z,17.08
2022-09-15T09:58:54.571Z,17.90
2022-09-15T10:01:25.634Z,18.91
2022-09-15T10:04:17.777Z,19.45
2022-09-15T10:06:44.820Z,19.84
2022-09-15T10:09:19.334Z,19.40
2022-09-15T10:11:52.437Z,19.77
2022-09-15T10:14:20.245Z,20.44
2022-09-15T10:17:06.103Z,20.18
2022-09-15T10:19:36.734Z,19.08
2022-09-15T10:22:04.795Z,19.38
2022-09-15T10:24:38.853Z,19.58
2022-09-15T10:27:18.221Z,20.67
2022-09-15T10:29:45.257Z,20.91
2022-09-15T10:32:25.533Z,20.40
2022-09-15T10:35:02.989Z,20.94
2022-09-15T10:37:54.034Z,21.56
2022-09-15T10:40:20.602Z,21.89
2022-09-15T10:42:51.713Z,21.98
2022-09-15T10:45:29.120Z,21.99
2022-09-15T10:48:17.491Z,22.99
2022-09-15T10:50:55.617Z,22.76
2022-09-15T10:53:57.697Z,23.52
2022-09-15T10:56:46.165Z,22.49
2022-09-15T10:59:42.081Z,21.34
2022-09-15T11:02:53.845Z,20.46
2022-09-15T11:05:41.261Z,19.65
2022-09-15T11:08:35.510Z,19.75
2022-09-15T11:11:29.467Z,19.40
2022-09-15T11:14:30.261Z,19.33
2022-09-15T11:17:02.583Z,18.80
2022-09-15T11:19:48.084Z,19.05
2022-09-15T11:22:19.741Z,18.76
2022-09-15T11:24:59.578Z,19.67
2022-09-15T11:27:42.833Z,20.27
2022-09-15T11:30:21.945Z,20.36
2022-09-15T11:33:03.283Z,20.22
2022-09-15T11:35:50.248Z,20.36
2022-09-15T11:38:34.245Z,20.05
2022-09-15T11:41:41.494Z,20.72
2022-09-15T11:44:16.754Z,20.72
2022-09-15T11:47:02.310Z,20.56
2022-09-15T11:49:36.841Z,21.26
2022-09-15T11:52:07.157Z,20.71
2022-09-15T11:55:19.365Z,20.84
2022-09-15T11:58:03.516Z,20.94
2022-09-15T12:00:31.655Z,20.44
2022-09-15T12:03:13.685Z,20.20
2022-09-15T12:05:48.529Z,19.72
2022-09-15T12:08:21.809Z,20.42
2022-09-15T12:10:56.630Z,20.50
2022-09-15T12:13:25.079Z,20.18
2022-09-15T12:15:53.452Z,19.61
2022-09-15T12:18:39.008Z,19.30
2022-09-15T12:21:17.063Z,19.19
2022-09-15T12:23:54.339Z,19.11
2022-09-15T12:26:26.259Z,18.92
2022-09-15T12:28:57.392Z,18.63
2022-09-15T12:31:35.755Z,18.36
2022-09-15T12:34:22.225Z,17.69
2022-09-15T12:36:51.383Z,18.11
2022-09-15T12:39:26.201Z,18.09
2022-09-15T12:42:14.857Z,18.37
2022-09-15T12:44:52.161Z,18.70
2022-09-15T12:47:18.742Z,19.00
2022-09-15T12:49:48.959Z,18.65
2022-09-15T12:52:17.287Z,18.73
2022-09-15T12:54:51.804Z,18.50
2022-09-15T12:57:36.265Z,18.61
2022-09-15T13:00:21.010Z,18.65
2022-09-15T13:02:49.293Z,18.79
2022-09-15T13:05:41.319Z,19.07
2022-09-15T13:08:30.656Z,19.15
2022-09-15T13:11:04.918Z,19.04
2022-09-15T13:13:39.832Z,19.10
2022-09-15T13:16:21.115Z,18.71
2022-09-15T13:18:54.385Z,19.10
2022-09-15T13:21:23.057Z,18.89
2022-09-15T13:23:52.890Z,18.76
2022-09-15T13:26:25.666Z,18.52
2022-09-15T13:28:56.214Z,18.21
2022-09-15T13:31:41.199Z,17.90
2022-09-15T13:40:40.584Z,18.23
2022-09-15T13:43:25.537Z,18.46
2022-09-15T13:46:04.777Z,18.13
2022-09-15T13:48:56.376Z,18.06
2022-09-15T13:51:27.652Z,17.91
2022-09-15T13:54:06.637Z,17.84
2022-09-15T13:56:37.983Z,18.31
2022-09-15T13:59:13.982Z,18.17
2022-09-15T14:01:42.586Z,18.30
2022-09-15T14:04:24.330Z,18.00
2022-09-15T14:06:55.922Z,17.95
2022-09-15T14:09:29.711Z,17.96
2022-09-15T14:11:59.624Z,17.83
2022-09-15T14:14:34.576Z,17.93
2022-09-15T14:17:01.302Z,17.66
2022-09-15T14:19:34.146Z,17.77
2022-09-15T14:22:20.339Z,17.74
2022-09-15T14:24:47.575Z,17.91
2022-09-15T14:27:37.763Z,18.05
2022-09-15T14:30:07.485Z,17.99
2022-09-15T14:32:39.000Z,17.72
2022-09-15T14:35:09.504Z,17.70
2022-09-15T14:37:36.463Z,17.56
2022-09-15T14:40:19.190Z,17.09
2022-09-15T14:42:45.856Z,16.97
2022-09-15T14:48:07.209Z,17.30
2022-09-15T14:50:34.224Z,17.27
2022-09-15T14:53:10.102Z,17.39
2022-09-15T14:55:57.686Z,17.25
2022-09-15T14:58:28.082Z,17.38
2022-09-15T15:01:06.669Z,17.16
2022-09-15T15:03:38.099Z,17.57
2022-09-15T15:06:39.934Z,17.31
2022-09-15T15:09:14.537Z,16.77
2022-09-15T15:11:42.061Z,16.94
2022-09-15T15:14:09.665Z,17.29
2022-09-15T15:16:37.472Z,17.16
2022-09-15T15:19:04.345Z,17.17
2022-09-15T15:21:38.812Z,17.28
2022-09-15T15:24:22.676Z,16.94
2022-09-15T15:26:50.471Z,16.94
2022-09-15T15:29:43.189Z,17.03
2022-09-15T15:32:30.113Z,17.08
2022-09-15T15:35:01.436Z,16.85
2022-09-15T15:37:30.833Z,17.03
2022-09-15T15:40:00.493Z,16.79
2022-09-15T15:42:28.735Z,16.74
2022-09-15T15:45:21.821Z,16.77
2022-09-15T15:47:48.350Z,16.62
2022-09-15T15:50:20.819Z,16.47
2022-09-15T15:52:49.134Z,16.19
2022-09-15T15:55:24.664Z,16.18
2022-09-15T15:57:53.951Z,16.01
2022-09-15T16:00:26.751Z,15.94
2022-09-15T16:02:53.961Z,15.65
2022-09-15T16:05:25.185Z,16.00
2022-09-15T16:07:52.909Z,15.97
2022-09-15T16:10:22.628Z,15.56
2022-09-15T16:12:49.464Z,15.62
2022-09-15T16:15:19.576Z,15.70
2022-09-15T16:17:47.172Z,15.82
2022-09-15T16:20:16.397Z,15.75
2022-09-15T16:22:43.710Z,15.76
2022-09-15T16:25:15.508Z,15.68
2022-09-15T16:27:42.000Z,15.54
2022-09-15T16:30:11.993Z,15.46
2022-09-15T16:32:40.281Z,15.46
2022-09-15T16:35:43.138Z,15.31
2022-09-15T16:38:09.630Z,15.32
2022-09-15T16:40:37.529Z,15.23
2022-09-15T16:43:09.172Z,15.03
2022-09-15T16:45:40.592Z,15.24
2022-09-15T16:48:08.877Z,15.09
2022-09-15T16:50:37.799Z,14.99
2022-09-15T16:53:06.767Z,15.02
2022-09-15T16:55:43.219Z,15.06
2022-09-15T16:58:09.638Z,15.00
2022-09-15T17:00:36.991Z,15.12
2022-09-15T17:04:01.489Z,14.92
2022-09-15T17:15:45.944Z,15.09
2022-09-15T17:18:15.403Z,14.92
2022-09-15T17:20:43.718Z,14.79
2022-09-15T17:23:28.036Z,14.76
2022-09-15T17:25:58.510Z,14.69
2022-09-15T17:28:33.710Z,14.66
2022-09-15T17:31:06.055Z,14.69
2022-09-15T17:33:32.963Z,14.76
2022-09-15T17:36:00.224Z,14.64
2022-09-15T17:38:27.454Z,14.48
2022-09-15T17:40:57.599Z,14.62
2022-09-15T17:43:26.587Z,14.36
2022-09-15T17:45:53.961Z,14.39
2022-09-15T17:48:21.276Z,14.37
2022-09-15T17:50:48.731Z,14.11
2022-09-15T17:53:34.633Z,14.11
2022-09-15T17:56:01.269Z,14.21
2022-09-15T17:58:29.893Z,14.09
2022-09-15T18:00:57.188Z,14.16
2022-09-15T18:03:35.221Z,14.28
2022-09-15T18:06:05.598Z,14.05
2022-09-15T18:08:35.858Z,14.15
2022-09-15T18:11:04.153Z,14.15
2022-09-15T18:13:31.172Z,14.11
2022-09-15T18:16:02.659Z,14.12
2022-09-15T18:18:29.201Z,14.18
2022-09-15T18:20:57.894Z,14.19
2022-09-15T18:23:26.394Z,14.18
2022-09-15T18:25:52.884Z,14.11
2022-09-15T18:28:19.851Z,13.94
2022-09-15T18:30:48.907Z,13.92
2022-09-15T18:33:21.372Z,13.94
2022-09-15T18:35:50.006Z,13.81
2022-09-15T18:38:16.519Z,13.94
2022-09-15T18:40:48.926Z,13.70
2022-09-15T18:43:16.209Z,13.81
2022-09-15T18:45:42.792Z,13.78
2022-09-15T18:48:12.703Z,13.83
2022-09-15T18:50:40.005Z,13.91
2022-09-15T18:53:06.603Z,13.71
2022-09-15T18:55:35.322Z,13.79
2022-09-15T18:58:02.532Z,13.68
2022-09-15T19:00:29.351Z,13.77
2022-09-15T19:03:00.440Z,13.66
2022-09-15T19:05:28.497Z,13.81
2022-09-15T19:07:55.544Z,13.83
2022-09-15T19:10:23.063Z,13.93
2022-09-15T19:12:49.545Z,13.89
2022-09-15T19:15:16.468Z,13.86
2022-09-15T19:17:43.535Z,13.76
2022-09-15T19:20:14.939Z,13.82
2022-09-15T19:22:42.193Z,13.74
2022-09-15T19:25:09.695Z,13.79
2022-09-15T19:27:36.900Z,13.81
2022-09-15T19:30:03.966Z,13.80
2022-09-15T19:32:32.817Z,13.71
2022-09-15T19:34:59.295Z,13.77
2022-09-15T19:37:25.784Z,13.64
2022-09-15T19:39:52.308Z,13.79
2022-09-15T19:42:18.809Z,13.61
2022-09-15T19:44:45.913Z,13.62
2022-09-15T19:47:12.451Z,13.61
2022-09-15T19:49:38.904Z,13.57
2022-09-15T19:52:06.359Z,13.52
2022-09-15T19:54:34.451Z,13.47
2022-09-15T19:57:01.542Z,13.59
2022-09-15T19:59:31.320Z,13.63
